Time;durP1;ratioP1;P1;durP2;ratioP2;P2;SDS_P1;SDS_P2;PMS_P1;PMS_P2;Temp;Humidity;BMP_temperature;BMP_pressure;BME280_temperature;BME280_humidity;BME280_pressure;Samples;Min_cycle;Max_cycle;Signal;HPM_P1;HPM_P2
2021/09/29 00:00:56;;;;;;;1.92;0.60;;;12.40;97.90;;;;;;4942514;28;20138;-63
2021/09/29 00:03:24;;;;;;;4.80;0.73;;;12.30;97.30;;;;;;4944191;28;20380;-64
2021/09/29 00:05:50;;;;;;;2.67;0.52;;;12.30;97.40;;;;;;4944398;28;20047;-63
2021/09/29 00:08:17;;;;;;;2.88;0.77;;;12.30;97.20;;;;;;4946873;28;20597;-63
2021/09/29 00:10:44;;;;;;;2.13;0.75;;;12.20;97.10;;;;;;4962617;28;20051;-63
2021/09/29 00:13:11;;;;;;;4.93;0.80;;;12.20;97.10;;;;;;4960953;28;20551;-63
2021/09/29 00:15:37;;;;;;;1.48;0.63;;;12.20;97.40;;;;;;4947116;28;20135;-63
2021/09/29 00:18:04;;;;;;;0.80;0.50;;;12.10;97.20;;;;;;4946416;28;20047;-63
2021/09/29 00:20:31;;;;;;;4.03;0.50;;;12.10;97.20;;;;;;4946736;29;20106;-63
2021/09/29 00:22:58;;;;;;;3.35;0.57;;;12.10;97.10;;;;;;4946600;28;20078;-63
2021/09/29 00:25:25;;;;;;;2.58;0.60;;;12.00;97.10;;;;;;4962742;28;20490;-63
2021/09/29 00:27:51;;;;;;;1.77;0.70;;;12.00;97.10;;;;;;4946271;28;20125;-63
2021/09/29 00:30:19;;;;;;;4.57;1.42;;;12.00;97.10;;;;;;4947494;29;20078;-63
2021/09/29 00:32:46;;;;;;;1.52;0.70;;;12.00;97.40;;;;;;4946005;28;20142;-63
2021/09/29 00:35:13;;;;;;;0.38;0.35;;;11.90;97.10;;;;;;4947759;28;20086;-63
2021/09/29 00:37:40;;;;;;;1.50;0.60;;;11.90;97.00;;;;;;4961171;28;20047;-63
2021/09/29 00:40:08;;;;;;;1.25;0.40;;;11.80;97.00;;;;;;4946480;28;20113;-63
2021/09/29 00:42:35;;;;;;;0.80;0.45;;;11.80;97.00;;;;;;4961479;28;20079;-63
2021/09/29 00:45:02;;;;;;;0.98;0.32;;;11.80;96.90;;;;;;4940750;28;20138;-63
2021/09/29 00:47:31;;;;;;;1.45;0.47;;;11.70;97.00;;;;;;4944250;29;20134;-63
2021/09/29 00:49:59;;;;;;;2.00;0.68;;;11.80;97.10;;;;;;4947037;28;20083;-63
2021/09/29 00:52:26;;;;;;;1.90;0.77;;;11.70;97.20;;;;;;4947322;28;20142;-63
2021/09/29 00:54:53;;;;;;;2.33;0.65;;;11.70;97.00;;;;;;4950573;28;20151;-62
2021/09/29 00:57:19;;;;;;;0.77;0.40;;;11.70;96.90;;;;;;4964638;28;20594;-63
2021/09/29 00:59:46;;;;;;;7.22;1.13;;;11.70;96.90;;;;;;4949875;28;20126;-63
2021/09/29 01:02:13;;;;;;;1.67;0.90;;;11.70;96.80;;;;;;4946968;29;20471;-63
2021/09/29 01:04:40;;;;;;;1.23;0.40;;;11.70;96.90;;;;;;4947959;28;20097;-63
2021/09/29 01:07:14;;;;;;;0.55;0.30;;;11.70;97.00;;;;;;4947219;28;20531;-63
2021/09/29 01:09:46;;;;;;;1.35;0.40;;;11.70;96.80;;;;;;4950474;28;20134;-63
2021/09/29 01:12:37;;;;;;;2.95;0.30;;;11.70;96.70;;;;;;4964990;28;20712;-63
2021/09/29 01:15:09;;;;;;;1.15;0.50;;;11.70;96.80;;;;;;4964064;28;20079;-63
2021/09/29 01:17:39;;;;;;;1.63;0.50;;;11.60;96.70;;;;;;4947926;29;20074;-63
2021/09/29 01:20:06;;;;;;;1.60;0.40;;;11.70;96.60;;;;;;4949951;28;20075;-63
2021/09/29 01:22:38;;;;;;;0.95;0.52;;;11.60;96.60;;;;;;4950023;29;20468;-63
2021/09/29 01:25:06;;;;;;;0.93;0.50;;;11.60;96.60;;;;;;4949354;29;20321;-63
2021/09/29 01:27:33;;;;;;;2.80;0.52;;;11.70;96.70;;;;;;4949426;28;20364;-62
2021/09/29 01:29:59;;;;;;;0.50;0.20;;;11.60;96.40;;;;;;4943811;28;20121;-63
2021/09/29 01:32:26;;;;;;;0.40;0.30;;;11.70;96.30;;;;;;4965374;28;20082;-63
2021/09/29 01:34:53;;;;;;;0.93;0.47;;;11.60;96.40;;;;;;4950447;29;20152;-63
2021/09/29 01:37:20;;;;;;;1.75;0.52;;;11.60;96.60;;;;;;4950252;29;20083;-62
2021/09/29 01:39:46;;;;;;;1.13;0.40;;;11.60;96.50;;;;;;4973953;28;20079;-63
2021/09/29 01:42:13;;;;;;;1.85;0.45;;;11.60;96.40;;;;;;4982795;28;20114;-62
2021/09/29 01:44:40;;;;;;;2.72;0.52;;;11.60;96.60;;;;;;4950672;28;20090;-62
2021/09/29 01:47:09;;;;;;;2.17;0.50;;;11.50;96.70;;;;;;4949211;28;20210;-63
2021/09/29 01:49:37;;;;;;;1.48;0.70;;;11.50;96.70;;;;;;4950204;28;20055;-63
2021/09/29 01:52:05;;;;;;;1.80;0.60;;;11.50;96.90;;;;;;4914449;29;20143;-63
2021/09/29 01:54:32;;;;;;;1.33;0.50;;;11.50;96.90;;;;;;4943530;28;20467;-63
2021/09/29 01:56:58;;;;;;;0.52;0.52;;;11.40;96.90;;;;;;4948645;28;20560;-63
2021/09/29 01:59:25;;;;;;;1.10;1.00;;;11.40;97.10;;;;;;4949447;28;20082;-63
2021/09/29 02:01:53;;;;;;;1.30;0.73;;;11.40;97.30;;;;;;4947107;29;20082;-62
2021/09/29 02:04:20;;;;;;;1.40;0.70;;;11.40;97.30;;;;;;4947933;28;20382;-62
2021/09/29 02:06:48;;;;;;;1.67;1.10;;;11.40;97.60;;;;;;4949849;28;20094;-62
2021/09/29 02:09:15;;;;;;;2.35;1.10;;;11.40;97.40;;;;;;4948864;28;20106;-63
2021/09/29 02:11:42;;;;;;;3.72;1.30;;;11.50;97.60;;;;;;4948977;28;20074;-62
2021/09/29 02:14:09;;;;;;;2.85;1.65;;;11.40;97.60;;;;;;4949588;28;20074;-63
2021/09/29 02:16:36;;;;;;;3.55;1.55;;;11.50;97.70;;;;;;4947914;29;20491;-63
2021/09/29 02:19:03;;;;;;;3.22;1.60;;;11.50;97.80;;;;;;4964594;28;20662;-63
2021/09/29 02:21:30;;;;;;;2.63;1.80;;;11.50;97.70;;;;;;4947803;29;20085;-62
2021/09/29 02:23:56;;;;;;;2.95;1.52;;;11.50;97.80;;;;;;4948517;29;21773;-62
2021/09/29 02:26:23;;;;;;;3.00;2.00;;;11.50;97.80;;;;;;4949002;28;20126;-63
2021/09/29 02:28:50;;;;;;;3.42;1.65;;;11.40;98.10;;;;;;4949188;28;20086;-62
2021/09/29 02:31:17;;;;;;;2.42;1.63;;;11.40;97.90;;;;;;4948305;28;20133;-63
2021/09/29 02:33:44;;;;;;;2.80;2.10;;;11.40;98.00;;;;;;4949937;28;20087;-62
2021/09/29 02:36:10;;;;;;;3.22;2.15;;;11.30;98.00;;;;;;4948964;28;20075;-63
2021/09/29 02:38:38;;;;;;;3.63;2.28;;;11.30;98.00;;;;;;4963701;28;20057;-63
2021/09/29 02:41:04;;;;;;;3.45;1.95;;;11.30;97.90;;;;;;4949831;28;20522;-63
2021/09/29 02:43:31;;;;;;;6.28;2.08;;;11.30;98.00;;;;;;4948645;28;20118;-62
2021/09/29 02:45:59;;;;;;;2.83;1.58;;;11.20;98.00;;;;;;4948442;28;20089;-63
2021/09/29 02:48:28;;;;;;;4.57;1.60;;;11.20;97.90;;;;;;4948618;29;20043;-62
2021/09/29 02:50:55;;;;;;;1.90;1.30;;;11.20;97.70;;;;;;4947085;29;20130;-63
2021/09/29 02:53:22;;;;;;;3.78;1.45;;;11.20;97.80;;;;;;4948544;29;20525;-62
2021/09/29 02:55:48;;;;;;;5.75;1.85;;;11.20;97.60;;;;;;4949852;28;20635;-63
2021/09/29 02:58:15;;;;;;;3.67;1.63;;;11.20;97.70;;;;;;4948145;28;20090;-63
2021/09/29 03:00:42;;;;;;;1.38;1.05;;;11.20;97.60;;;;;;4949267;28;20171;-63
2021/09/29 03:03:09;;;;;;;3.45;1.50;;;11.10;97.70;;;;;;4948871;28;20074;-63
2021/09/29 03:05:36;;;;;;;1.98;1.20;;;11.10;97.60;;;;;;4949204;28;20051;-62
2021/09/29 03:08:03;;;;;;;2.88;1.70;;;11.10;97.60;;;;;;4962699;28;20090;-62
2021/09/29 03:10:30;;;;;;;1.73;1.30;;;11.10;97.60;;;;;;4949474;28;20419;-62
2021/09/29 03:12:56;;;;;;;4.55;1.00;;;11.10;97.50;;;;;;4948241;28;20137;-62
2021/09/29 03:15:23;;;;;;;3.53;1.20;;;11.10;97.50;;;;;;4949277;28;20154;-62
2021/09/29 03:17:50;;;;;;;2.75;1.45;;;11.10;97.50;;;;;;4948245;28;20131;-62
2021/09/29 03:20:16;;;;;;;1.55;1.33;;;11.00;97.50;;;;;;4949042;28;20169;-63
2021/09/29 03:22:43;;;;;;;1.95;1.02;;;11.00;97.30;;;;;;4948311;28;20451;-62
2021/09/29 03:25:10;;;;;;;2.80;1.17;;;11.00;97.30;;;;;;4948607;28;20122;-63
2021/09/29 03:27:37;;;;;;;5.38;1.55;;;11.00;97.40;;;;;;4948298;28;20134;-62
2021/09/29 03:30:04;;;;;;;2.95;1.33;;;10.90;97.50;;;;;;4948373;28;20618;-62
2021/09/29 03:32:31;;;;;;;3.17;1.50;;;10.90;97.40;;;;;;4963005;28;20094;-62
2021/09/29 03:34:57;;;;;;;3.78;1.60;;;10.80;97.40;;;;;;4948546;28;20087;-62
2021/09/29 03:37:24;;;;;;;2.28;1.30;;;10.80;97.50;;;;;;4947971;28;20166;-63
2021/09/29 03:39:51;;;;;;;4.57;1.40;;;10.80;97.60;;;;;;4948829;28;20100;-62
2021/09/29 03:42:17;;;;;;;4.00;1.67;;;10.80;97.50;;;;;;4948072;28;20051;-63
2021/09/29 03:44:44;;;;;;;2.10;1.33;;;10.70;97.60;;;;;;4947621;28;20079;-63
2021/09/29 03:47:11;;;;;;;3.45;1.83;;;10.70;97.50;;;;;;4944964;28;20079;-62
2021/09/29 03:49:38;;;;;;;3.45;1.20;;;10.70;97.50;;;;;;4947477;28;20407;-63
2021/09/29 03:52:05;;;;;;;3.83;1.20;;;10.60;97.40;;;;;;4947936;29;20139;-63
2021/09/29 03:54:32;;;;;;;4.15;1.45;;;10.60;97.40;;;;;;4947395;28;20134;-63
2021/09/29 03:57:01;;;;;;;5.25;1.13;;;10.60;97.60;;;;;;4946815;28;20082;-63
2021/09/29 03:59:28;;;;;;;1.52;1.08;;;10.50;97.50;;;;;;4946787;29;20574;-63
2021/09/29 04:01:55;;;;;;;2.97;1.13;;;10.50;97.40;;;;;;4928534;29;20439;-63
2021/09/29 04:04:21;;;;;;;3.28;1.23;;;10.50;97.40;;;;;;4928889;29;20047;-63
2021/09/29 04:06:48;;;;;;;2.30;1.33;;;10.40;97.30;;;;;;4946577;29;20102;-63
2021/09/29 04:09:15;;;;;;;2.40;1.40;;;10.40;97.30;;;;;;4947671;28;20131;-63
2021/09/29 04:11:42;;;;;;;4.53;1.58;;;10.40;97.30;;;;;;4946347;28;20130;-63
2021/09/29 04:14:08;;;;;;;4.30;1.20;;;10.30;97.20;;;;;;4947250;28;20094;-63
2021/09/29 04:16:35;;;;;;;2.90;1.33;;;10.30;97.30;;;;;;4946393;29;20101;-63
2021/09/29 04:19:02;;;;;;;2.92;1.08;;;10.30;97.20;;;;;;4945714;29;20074;-63
2021/09/29 04:21:29;;;;;;;4.20;1.10;;;10.20;97.30;;;;;;4961899;28;20097;-63
2021/09/29 04:23:56;;;;;;;3.67;1.73;;;10.20;97.20;;;;;;4946286;28;20053;-63
2021/09/29 04:26:22;;;;;;;2.90;1.30;;;10.20;97.40;;;;;;4961075;28;20466;-63
2021/09/29 04:28:49;;;;;;;6.40;1.48;;;10.10;97.30;;;;;;4947332;28;20055;-63
2021/09/29 04:31:16;;;;;;;2.72;1.23;;;10.10;97.30;;;;;;4945218;28;20494;-62
2021/09/29 04:33:43;;;;;;;6.53;1.20;;;10.10;97.30;;;;;;4944283;28;20051;-63
2021/09/29 04:36:10;;;;;;;4.35;1.13;;;10.10;97.40;;;;;;4940761;29;20052;-63
2021/09/29 04:38:37;;;;;;;3.85;1.48;;;10.00;97.30;;;;;;4926332;29;20517;-63
2021/09/29 04:41:03;;;;;;;2.75;1.17;;;10.00;97.30;;;;;;4939285;29;20066;-63
2021/09/29 04:43:30;;;;;;;3.70;1.17;;;10.00;97.30;;;;;;4938644;29;20158;-63
2021/09/29 04:45:57;;;;;;;3.00;1.50;;;9.90;97.40;;;;;;4944284;28;20146;-62
2021/09/29 04:48:24;;;;;;;2.80;1.30;;;9.90;97.50;;;;;;4940009;28;20055;-63
2021/09/29 04:50:50;;;;;;;5.50;2.33;;;9.90;97.30;;;;;;4944233;28;20142;-63
2021/09/29 04:53:17;;;;;;;3.05;0.85;;;9.90;97.20;;;;;;4937798;29;20078;-63
2021/09/29 04:55:44;;;;;;;4.90;1.60;;;9.80;97.10;;;;;;4939143;28;20138;-63
2021/09/29 04:58:11;;;;;;;2.15;0.90;;;9.80;97.10;;;;;;4938934;28;20101;-63
2021/09/29 05:00:37;;;;;;;5.78;1.73;;;9.80;97.20;;;;;;4935141;29;20379;-63
2021/09/29 05:03:04;;;;;;;9.38;1.45;;;9.80;97.20;;;;;;4937558;28;20055;-62
2021/09/29 05:05:34;;;;;;;4.22;1.15;;;9.80;97.20;;;;;;4941105;29;20484;-63
2021/09/29 05:08:02;;;;;;;4.47;1.20;;;9.70;97.10;;;;;;4938365;29;20534;-62
2021/09/29 05:11:16;;;;;;;5.00;1.05;;;9.70;97.20;;;;;;4935358;29;20047;-62
2021/09/29 05:13:43;;;;;;;6.13;2.50;;;9.70;97.20;;;;;;4934133;28;20538;-63
2021/09/29 05:16:09;;;;;;;2.70;0.98;;;9.70;97.20;;;;;;4940657;29;20055;-63
2021/09/29 05:18:36;;;;;;;6.93;1.42;;;9.60;97.10;;;;;;4935576;29;20201;-63
2021/09/29 05:21:06;;;;;;;3.17;0.90;;;9.60;97.10;;;;;;4957124;28;20110;-63
2021/09/29 05:23:32;;;;;;;5.28;1.75;;;9.60;97.10;;;;;;4941846;28;20138;-63
2021/09/29 05:25:59;;;;;;;5.55;1.33;;;9.60;97.10;;;;;;4941590;28;20452;-63
2021/09/29 05:28:27;;;;;;;4.20;2.00;;;9.50;97.10;;;;;;4940591;28;20306;-63
2021/09/29 05:30:54;;;;;;;9.57;6.10;;;9.50;97.20;;;;;;4937395;29;20419;-63
2021/09/29 05:33:21;;;;;;;12.82;8.98;;;9.50;97.30;;;;;;4939180;29;20583;-63
2021/09/29 05:35:47;;;;;;;15.57;12.95;;;9.40;97.20;;;;;;4932954;29;20725;-62
2021/09/29 05:38:14;;;;;;;15.68;10.15;;;9.40;97.30;;;;;;4931235;28;20142;-63
2021/09/29 05:40:41;;;;;;;13.45;9.50;;;9.40;97.10;;;;;;4934494;28;20162;-64
2021/09/29 05:43:08;;;;;;;10.40;7.03;;;9.40;97.20;;;;;;4936707;29;20142;-63
2021/09/29 05:45:35;;;;;;;10.80;7.22;;;9.40;97.20;;;;;;4942936;28;20177;-63
2021/09/29 05:48:02;;;;;;;7.53;4.93;;;9.40;97.20;;;;;;4941667;28;20055;-63
2021/09/29 05:50:29;;;;;;;6.72;3.38;;;9.30;97.20;;;;;;4942946;28;20106;-62
2021/09/29 05:52:55;;;;;;;6.97;2.90;;;9.30;97.20;;;;;;4937045;28;20499;-62
2021/09/29 05:55:22;;;;;;;2.92;1.65;;;9.30;97.20;;;;;;4942344;28;20114;-62
2021/09/29 05:57:49;;;;;;;6.40;1.67;;;9.30;97.20;;;;;;4940470;29;20077;-62
2021/09/29 06:00:16;;;;;;;4.93;1.85;;;9.20;97.20;;;;;;4936420;29;20518;-62
2021/09/29 06:02:43;;;;;;;3.17;1.23;;;9.20;97.30;;;;;;4931992;29;20475;-62
2021/09/29 06:05:09;;;;;;;3.60;2.08;;;9.20;97.40;;;;;;4942049;28;20118;-62
2021/09/29 06:07:37;;;;;;;4.90;2.28;;;9.20;97.30;;;;;;4936490;28;20110;-62
2021/09/29 06:10:05;;;;;;;4.78;1.30;;;9.20;97.30;;;;;;4936480;29;20569;-62
2021/09/29 06:12:31;;;;;;;5.95;1.80;;;9.20;97.20;;;;;;4939966;28;20543;-62
2021/09/29 06:14:58;;;;;;;7.28;1.58;;;9.20;97.20;;;;;;4937533;28;20139;-61
2021/09/29 06:17:36;;;;;;;4.60;1.40;;;9.20;97.20;;;;;;4936526;29;20614;-62
2021/09/29 06:20:03;;;;;;;3.95;1.23;;;9.20;97.20;;;;;;4942444;28;20086;-62
2021/09/29 06:22:30;;;;;;;3.78;1.40;;;9.20;97.00;;;;;;4941937;28;20138;-62
2021/09/29 06:24:56;;;;;;;4.18;1.40;;;9.10;97.00;;;;;;4942796;28;20134;-62
2021/09/29 06:27:23;;;;;;;3.42;1.20;;;9.10;96.90;;;;;;4943145;28;20144;-62
2021/09/29 06:29:50;;;;;;;3.30;1.10;;;9.20;97.00;;;;;;4942295;28;20154;-62
2021/09/29 06:32:17;;;;;;;3.88;1.85;;;9.10;97.00;;;;;;4940665;29;20139;-62
2021/09/29 06:34:44;;;;;;;3.65;1.83;;;9.10;97.00;;;;;;4941993;28;20043;-62
2021/09/29 06:37:10;;;;;;;6.40;1.20;;;9.20;97.10;;;;;;4940941;29;20083;-61
2021/09/29 06:39:37;;;;;;;6.28;1.95;;;9.20;96.90;;;;;;4942138;28;20142;-62
2021/09/29 06:42:04;;;;;;;6.78;1.38;;;9.20;96.70;;;;;;4942005;28;20055;-62
2021/09/29 06:44:31;;;;;;;5.95;1.63;;;9.20;96.70;;;;;;4941020;28;20422;-62
2021/09/29 06:47:01;;;;;;;6.18;1.65;;;9.20;96.60;;;;;;4941399;28;20059;-61
2021/09/29 06:49:28;;;;;;;5.53;1.08;;;9.20;96.80;;;;;;4941409;28;20205;-62
2021/09/29 06:51:55;;;;;;;5.40;1.23;;;9.20;96.70;;;;;;4940595;29;20174;-62
2021/09/29 06:54:22;;;;;;;2.65;1.40;;;9.20;96.50;;;;;;4941760;28;20141;-62
2021/09/29 06:56:48;;;;;;;4.10;1.27;;;9.30;96.40;;;;;;4941478;28;20781;-62
2021/09/29 06:59:15;;;;;;;2.85;1.40;;;9.30;96.30;;;;;;4941722;28;20058;-62
2021/09/29 07:01:42;;;;;;;4.80;1.63;;;9.30;96.20;;;;;;4941807;28;20062;-62
2021/09/29 07:04:09;;;;;;;2.72;1.38;;;9.30;96.20;;;;;;4940227;29;20463;-61
2021/09/29 07:06:36;;;;;;;2.67;1.23;;;9.30;96.00;;;;;;4941511;28;20150;-62
2021/09/29 07:09:02;;;;;;;7.03;1.40;;;9.30;96.40;;;;;;4940722;28;20653;-61
2021/09/29 07:11:29;;;;;;;6.57;1.55;;;9.40;96.00;;;;;;4941119;28;20562;-61
2021/09/29 07:13:57;;;;;;;3.20;1.15;;;9.40;96.10;;;;;;4940641;28;20087;-61
2021/09/29 07:16:25;;;;;;;4.82;1.33;;;9.40;95.80;;;;;;4940887;28;20087;-61
2021/09/29 07:18:55;;;;;;;2.63;1.17;;;9.40;95.90;;;;;;4941661;28;20207;-62
2021/09/29 07:21:22;;;;;;;5.68;1.40;;;9.40;95.70;;;;;;4939569;28;20154;-61
2021/09/29 07:23:48;;;;;;;4.47;1.17;;;9.40;95.80;;;;;;4935936;28;20134;-61
2021/09/29 07:26:15;;;;;;;5.80;1.38;;;9.50;95.80;;;;;;4936478;29;20360;-61
2021/09/29 07:28:42;;;;;;;4.55;1.40;;;9.50;95.70;;;;;;4934278;29;20083;-61
2021/09/29 07:31:08;;;;;;;6.88;1.30;;;9.50;95.70;;;;;;4953699;28;20586;-61
2021/09/29 07:33:36;;;;;;;7.60;1.92;;;9.60;95.60;;;;;;4938161;28;20047;-61
2021/09/29 07:36:03;;;;;;;4.90;1.50;;;9.60;95.70;;;;;;4941588;28;20291;-63
2021/09/29 07:38:30;;;;;;;7.78;2.08;;;9.60;95.20;;;;;;4935928;28;20818;-62
2021/09/29 07:40:57;;;;;;;7.53;1.60;;;9.70;95.40;;;;;;4934125;29;20173;-62
2021/09/29 07:43:24;;;;;;;6.47;1.70;;;9.70;95.30;;;;;;4936900;28;20062;-62
2021/09/29 07:45:51;;;;;;;4.68;1.20;;;9.80;95.20;;;;;;4938804;28;20148;-62
2021/09/29 07:48:18;;;;;;;4.80;1.38;;;9.80;95.10;;;;;;4932653;28;20070;-61
2021/09/29 07:50:45;;;;;;;5.15;1.60;;;9.80;94.90;;;;;;4936174;28;20146;-61
2021/09/29 07:53:14;;;;;;;4.78;1.10;;;9.90;95.20;;;;;;4939695;28;20082;-62
2021/09/29 07:55:40;;;;;;;3.53;1.40;;;9.90;94.70;;;;;;4934951;29;20102;-62
2021/09/29 07:58:07;;;;;;;8.95;1.10;;;9.90;94.70;;;;;;4928016;29;20836;-61
2021/09/29 08:00:34;;;;;;;7.35;1.73;;;10.00;94.20;;;;;;4940812;28;20093;-62
2021/09/29 08:03:02;;;;;;;6.13;1.42;;;10.00;94.20;;;;;;4936296;28;20253;-61
2021/09/29 08:05:30;;;;;;;7.78;1.25;;;10.10;94.00;;;;;;4934454;28;20051;-62
2021/09/29 08:07:57;;;;;;;4.32;1.33;;;10.10;94.20;;;;;;4927569;29;20139;-61
2021/09/29 08:10:24;;;;;;;5.57;1.25;;;10.20;94.20;;;;;;4936927;29;20594;-62
2021/09/29 08:12:52;;;;;;;4.70;1.10;;;10.20;93.90;;;;;;4938625;28;20051;-61
2021/09/29 08:15:18;;;;;;;3.85;1.30;;;10.30;93.90;;;;;;4939922;29;20455;-62
2021/09/29 08:17:45;;;;;;;7.65;1.92;;;10.30;93.70;;;;;;4931870;28;20051;-61
2021/09/29 08:20:15;;;;;;;5.40;1.00;;;10.30;93.30;;;;;;4939605;28;20047;-62
2021/09/29 08:22:44;;;;;;;3.40;2.05;;;10.40;93.60;;;;;;4934912;29;20138;-62
2021/09/29 08:28:10;;;;;;;4.47;1.08;;;10.50;93.40;;;;;;4923328;29;20133;-62
2021/09/29 08:31:25;;;;;;;7.00;1.63;;;10.60;93.90;;;;;;4935128;28;20257;-62
2021/09/29 08:33:59;;;;;;;8.02;1.50;;;10.60;93.00;;;;;;4936844;28;20055;-61
2021/09/29 08:39:00;;;;;;;7.28;1.40;;;10.70;92.60;;;;;;4940342;28;20055;-61
2021/09/29 08:44:06;;;;;;;3.15;1.25;;;10.90;92.60;;;;;;4934345;29;20086;-61
2021/09/29 08:47:02;;;;;;;6.22;1.25;;;11.00;92.20;;;;;;4937250;29;20079;-61
2021/09/29 08:52:17;;;;;;;4.78;1.13;;;11.00;91.60;;;;;;4939155;29;20051;-61
2021/09/29 09:16:58;;;;;;;3.65;1.00;;;11.60;88.00;;;;;;4942712;29;20055;-62
2021/09/29 09:19:26;;;;;;;5.95;1.40;;;11.60;88.00;;;;;;4940405;29;20562;-62
2021/09/29 09:22:01;;;;;;;3.08;1.20;;;11.70;88.80;;;;;;4938822;29;20203;-62
2021/09/29 09:24:30;;;;;;;6.97;0.95;;;11.80;88.50;;;;;;4943221;28;20520;-62
2021/09/29 09:27:07;;;;;;;4.60;1.13;;;11.90;87.30;;;;;;4941196;29;20319;-62
2021/09/29 09:29:50;;;;;;;5.75;1.92;;;12.10;85.40;;;;;;4932864;28;20574;-62
2021/09/29 09:32:18;;;;;;;;;;;12.20;85.40;;;;;;4937468;29;20385;-61
2021/09/29 09:34:45;;;;;;;5.30;1.17;;;12.20;85.20;;;;;;4942418;29;20021;-62
2021/09/29 09:37:14;;;;;;;3.38;1.15;;;12.20;84.80;;;;;;4943576;28;20130;-61
2021/09/29 09:39:41;;;;;;;7.07;1.67;;;12.20;85.00;;;;;;4943426;28;20460;-61
2021/09/29 09:42:09;;;;;;;4.18;0.90;;;12.10;84.40;;;;;;4933926;29;20063;-61
2021/09/29 09:44:40;;;;;;;3.80;1.02;;;12.20;85.20;;;;;;4938539;29;20396;-61
2021/09/29 09:47:18;;;;;;;3.88;1.02;;;12.30;84.00;;;;;;4942116;28;20138;-61
2021/09/29 09:49:45;;;;;;;3.25;0.70;;;12.20;84.30;;;;;;4940893;29;20059;-62
2021/09/29 09:52:12;;;;;;;3.88;1.33;;;12.20;83.60;;;;;;4934316;28;20134;-61
2021/09/29 09:54:41;;;;;;;5.65;1.38;;;12.30;84.00;;;;;;4936343;28;20596;-62
2021/09/29 09:57:20;;;;;;;4.45;1.23;;;12.30;83.90;;;;;;4940416;29;20165;-62
2021/09/29 09:59:49;;;;;;;2.55;0.95;;;12.40;83.40;;;;;;4929672;29;20048;-62
2021/09/29 10:02:15;;;;;;;5.30;1.15;;;12.50;83.50;;;;;;4938421;28;20114;-61
2021/09/29 10:04:43;;;;;;;4.63;1.25;;;12.60;83.20;;;;;;4938613;29;20043;-62
2021/09/29 10:07:10;;;;;;;3.55;1.20;;;12.70;83.10;;;;;;4940121;28;20083;-62
2021/09/29 10:09:54;;;;;;;6.13;1.50;;;12.80;83.30;;;;;;4932152;28;20170;-62
2021/09/29 10:28:46;;;;;;;4.60;1.40;;;13.60;74.00;;;;;;4939531;29;20440;-62
2021/09/29 10:31:26;;;;;;;4.65;1.33;;;13.70;74.10;;;;;;4937634;28;20090;-62
2021/09/29 10:33:55;;;;;;;4.03;1.73;;;13.80;74.20;;;;;;4938618;29;20142;-62
2021/09/29 10:36:28;;;;;;;6.70;1.58;;;13.90;74.50;;;;;;4939576;28;20055;-62
2021/09/29 10:44:44;;;;;;;6.38;1.00;;;14.00;71.80;;;;;;4935419;29;20130;-62
2021/09/29 10:47:18;;;;;;;3.08;1.00;;;14.00;70.10;;;;;;4938280;29;20206;-62
2021/09/29 11:30:40;;;;;;;4.88;1.38;;;14.60;64.60;;;;;;4941749;28;20514;-62
2021/09/29 11:36:25;;;;;;;1.98;0.70;;;14.80;64.90;;;;;;4947952;28;20055;-62
2021/09/29 12:11:31;;;;;;;2.75;0.90;;;16.80;59.10;;;;;;4934189;29;20118;-63
2021/09/29 12:14:00;;;;;;;2.97;1.30;;;16.50;59.80;;;;;;4935868;28;20054;-63
2021/09/29 12:16:29;;;;;;;3.80;1.10;;;16.30;59.50;;;;;;4937863;28;20789;-63
2021/09/29 12:19:02;;;;;;;4.18;1.17;;;16.20;59.60;;;;;;4941591;28;20134;-65
2021/09/29 12:21:45;;;;;;;2.72;0.90;;;16.30;59.10;;;;;;4939348;28;20511;-62
2021/09/29 12:24:14;;;;;;;3.95;1.10;;;16.10;59.10;;;;;;4935702;28;20945;-62
2021/09/29 12:26:43;;;;;;;2.88;0.90;;;15.80;59.50;;;;;;4935888;29;20569;-62
2021/09/29 12:30:06;;;;;;;3.80;0.85;;;15.70;60.60;;;;;;4927781;29;20365;-63
2021/09/29 12:35:02;;;;;;;4.07;1.13;;;15.50;59.80;;;;;;4932161;29;20135;-62
2021/09/29 12:37:29;;;;;;;2.80;1.08;;;15.90;59.80;;;;;;4931035;29;20122;-63
2021/09/29 12:39:56;;;;;;;2.47;0.90;;;16.40;57.60;;;;;;4941759;29;20070;-63
2021/09/29 12:42:39;;;;;;;2.53;0.90;;;16.70;57.10;;;;;;4937111;29;20051;-63
2021/09/29 12:45:07;;;;;;;1.80;0.65;;;16.90;58.30;;;;;;4937837;29;20108;-63
2021/09/29 12:50:10;;;;;;;2.42;1.00;;;17.20;56.70;;;;;;4941438;28;20059;-63
2021/09/29 12:52:39;;;;;;;4.57;1.10;;;17.70;56.10;;;;;;4944685;28;20531;-63
2021/09/29 12:55:16;;;;;;;1.17;0.55;;;17.60;53.20;;;;;;4941833;28;20047;-63
2021/09/29 12:57:43;;;;;;;4.22;1.20;;;17.00;55.40;;;;;;4936154;29;20066;-63
2021/09/29 13:00:10;;;;;;;3.85;0.98;;;17.30;56.00;;;;;;4943528;28;20538;-63
2021/09/29 13:02:37;;;;;;;2.72;0.95;;;17.60;56.50;;;;;;4944030;28;20051;-63
2021/09/29 13:05:05;;;;;;;2.35;0.70;;;18.20;53.60;;;;;;4943377;29;20051;-63
2021/09/29 13:07:31;;;;;;;1.50;0.82;;;18.40;50.90;;;;;;4942508;29;20059;-63
2021/09/29 13:09:58;;;;;;;1.83;0.70;;;18.60;52.60;;;;;;4943453;28;20146;-61
2021/09/29 13:12:25;;;;;;;1.75;1.17;;;18.60;49.30;;;;;;4943543;28;20090;-61
2021/09/29 13:14:52;;;;;;;3.35;0.80;;;19.10;52.70;;;;;;4938955;28;20141;-60
2021/09/29 13:17:19;;;;;;;2.40;0.65;;;19.40;50.00;;;;;;4942575;28;20139;-62
2021/09/29 13:19:56;;;;;;;2.33;0.93;;;19.40;50.50;;;;;;4934958;29;20542;-63
2021/09/29 13:22:24;;;;;;;2.63;1.00;;;19.70;49.00;;;;;;4941665;28;20055;-62
2021/09/29 13:38:30;;;;;;;2.92;1.02;;;18.30;50.10;;;;;;4942894;28;20519;-63
2021/09/29 13:40:57;;;;;;;2.45;0.70;;;17.80;50.90;;;;;;4938557;28;20122;-63
2021/09/29 13:43:24;;;;;;;2.60;1.00;;;17.30;52.30;;;;;;4941635;28;20513;-63
2021/09/29 13:45:51;;;;;;;3.78;1.02;;;17.50;52.60;;;;;;4943034;28;20094;-61
2021/09/29 13:48:19;;;;;;;2.90;0.85;;;18.00;52.50;;;;;;4942967;28;20632;-61
2021/09/29 13:50:45;;;;;;;1.75;0.90;;;18.00;50.00;;;;;;4944081;28;20055;-61
2021/09/29 13:53:13;;;;;;;1.27;0.73;;;18.60;50.30;;;;;;4943503;28;20055;-61
2021/09/29 13:55:42;;;;;;;1.45;0.70;;;19.10;49.80;;;;;;4943384;28;20146;-61
2021/09/29 14:01:35;;;;;;;2.67;0.90;;;19.10;46.00;;;;;;4931548;29;20138;-61
2021/09/29 14:34:03;;;;;;;1.95;0.80;;;16.30;53.10;;;;;;4948467;28;20090;-61
2021/09/29 14:36:33;;;;;;;3.15;1.20;;;16.10;53.70;;;;;;4948635;28;20616;-61
2021/09/29 14:39:01;;;;;;;3.58;1.05;;;16.40;54.30;;;;;;4947840;28;20047;-61
2021/09/29 14:41:27;;;;;;;3.05;1.20;;;16.80;52.50;;;;;;4948564;28;20158;-61
2021/09/29 14:43:56;;;;;;;2.10;0.93;;;17.10;51.70;;;;;;4944700;28;20051;-59
2021/09/29 14:46:23;;;;;;;2.40;0.80;;;17.40;51.90;;;;;;4944602;28;20358;-61
2021/09/29 14:48:50;;;;;;;4.13;0.73;;;17.80;51.10;;;;;;4945069;28;20151;-61
2021/09/29 14:51:17;;;;;;;2.47;1.00;;;18.50;48.20;;;;;;4944362;28;20141;-61
2021/09/29 14:53:48;;;;;;;2.22;0.95;;;19.20;47.80;;;;;;4946798;29;20082;-61
2021/09/29 14:56:16;;;;;;;3.00;0.98;;;19.30;46.30;;;;;;4947905;28;20511;-62
2021/09/29 14:58:43;;;;;;;2.05;0.90;;;19.90;47.00;;;;;;4947643;28;20047;-62
2021/09/29 15:01:10;;;;;;;3.15;1.17;;;20.00;44.90;;;;;;4948257;28;20133;-62
2021/09/29 15:03:40;;;;;;;1.73;0.73;;;20.30;43.60;;;;;;4946402;29;20047;-62
2021/09/29 15:06:07;;;;;;;1.98;0.93;;;20.50;43.90;;;;;;4948398;28;20129;-62
2021/09/29 15:08:36;;;;;;;2.88;1.30;;;20.20;44.50;;;;;;4947977;28;20451;-61
2021/09/29 15:11:03;;;;;;;1.88;0.60;;;19.70;45.80;;;;;;4948132;28;20093;-61
2021/09/29 15:13:35;;;;;;;3.00;0.95;;;18.80;46.10;;;;;;4947269;28;20134;-61
2021/09/29 15:16:08;;;;;;;2.92;0.88;;;18.00;47.80;;;;;;4947164;29;20473;-61
2021/09/29 15:18:52;;;;;;;1.67;0.98;;;17.40;49.80;;;;;;4946535;28;20055;-61
2021/09/29 15:21:39;;;;;;;3.38;0.77;;;17.00;50.20;;;;;;4944513;28;20110;-61
2021/09/29 15:48:19;;;;;;;3.75;1.02;;;16.00;68.80;;;;;;4947066;28;20066;-62
2021/09/29 15:51:04;;;;;;;4.13;0.90;;;16.40;67.30;;;;;;4947245;28;20086;-61
2021/09/29 16:01:38;;;;;;;9.77;0.95;;;17.30;63.00;;;;;;4935808;29;20058;-62
2021/09/29 16:07:05;;;;;;;1.80;1.00;;;18.20;57.80;;;;;;4947029;28;20043;-61
2021/09/29 16:17:29;;;;;;;2.95;1.02;;;18.90;55.80;;;;;;4947107;28;20127;-61
2021/09/29 16:20:25;;;;;;;2.05;0.88;;;18.60;56.80;;;;;;4947196;28;20087;-62
2021/09/29 16:30:48;;;;;;;3.33;1.10;;;15.80;62.60;;;;;;4947045;28;20134;-61
2021/09/29 16:33:29;;;;;;;9.80;1.60;;;15.40;62.80;;;;;;4946642;28;20142;-61
2021/09/29 16:35:56;;;;;;;4.07;1.20;;;15.10;64.70;;;;;;4946837;28;20078;-61
2021/09/29 16:38:23;;;;;;;3.13;1.20;;;14.90;66.40;;;;;;4946284;28;20105;-61
2021/09/29 16:40:50;;;;;;;2.97;1.30;;;14.80;66.90;;;;;;4945224;29;20097;-61
2021/09/29 16:43:18;;;;;;;5.10;2.08;;;14.70;67.60;;;;;;4935937;29;20613;-61
2021/09/29 16:45:46;;;;;;;3.58;1.70;;;14.70;66.80;;;;;;4931894;29;20110;-62
2021/09/29 16:48:18;;;;;;;4.18;1.77;;;14.60;68.30;;;;;;4933005;29;20487;-61
2021/09/29 16:51:03;;;;;;;3.63;1.75;;;14.60;67.80;;;;;;4942315;28;20083;-61
2021/09/29 16:53:33;;;;;;;3.20;1.63;;;14.50;66.00;;;;;;4944652;28;20114;-61